Time;durP1;ratioP1;P1;durP2;ratioP2;P2;SDS_P1;SDS_P2;PMS_P1;PMS_P2;Temp;Humidity;BMP_temperature;BMP_pressure;BME280_temperature;BME280_humidity;BME280_pressure;Samples;Min_cycle;Max_cycle;Signal;HPM_P1;HPM_P2
2023/03/12 00:01:28;;;;;;;19.50;17.40;;;;;;;-2.43;100.00;97164.80;109641;1292;22383;-90
2023/03/12 00:03:59;;;;;;;19.40;17.30;;;;;;;-2.47;100.00;97168.73;109736;1292;22146;-90
2023/03/12 00:06:28;;;;;;;18.00;16.20;;;;;;;-2.52;100.00;97170.27;109717;1292;22203;-88
2023/03/12 00:08:57;;;;;;;17.80;15.90;;;;;;;-2.55;100.00;97173.42;109738;1292;22220;-90
2023/03/12 00:11:25;;;;;;;16.70;14.70;;;;;;;-2.58;100.00;97170.40;109758;1292;22044;-90
2023/03/12 00:13:55;;;;;;;16.00;14.30;;;;;;;-2.59;100.00;97172.48;109721;1286;22263;-91
2023/03/12 00:16:23;;;;;;;18.50;16.10;;;;;;;-2.59;100.00;97175.97;109666;1292;22676;-91
2023/03/12 00:18:54;;;;;;;31.20;25.40;;;;;;;-2.60;100.00;97178.75;109604;1292;22225;-91
2023/03/12 00:21:22;;;;;;;27.20;24.10;;;;;;;-2.64;100.00;97177.24;109678;1292;22112;-92
2023/03/12 00:23:51;;;;;;;30.40;25.10;;;;;;;-2.66;100.00;97176.76;109372;1292;22205;-89
2023/03/12 00:26:20;;;;;;;25.70;22.70;;;;;;;-2.68;100.00;97180.48;109579;1289;22162;-90
2023/03/12 00:28:49;;;;;;;29.70;24.00;;;;;;;-2.67;100.00;97183.82;109316;1292;22139;-90
2023/03/12 00:31:24;;;;;;;24.60;22.00;;;;;;;-2.65;100.00;97181.44;109040;1292;22201;-90
2023/03/12 00:33:54;;;;;;;25.90;23.00;;;;;;;-2.66;100.00;97183.52;109543;1292;22245;-89
2023/03/12 00:36:27;;;;;;;22.10;19.90;;;;;;;-2.67;100.00;97185.41;109599;1292;22207;-89
2023/03/12 00:38:57;;;;;;;21.40;19.30;;;;;;;-2.64;100.00;97188.31;109438;1292;22219;-88
2023/03/12 00:41:26;;;;;;;20.60;18.50;;;;;;;-2.61;100.00;97188.23;109445;1292;22204;-89
2023/03/12 00:43:54;;;;;;;20.10;18.00;;;;;;;-2.59;100.00;97189.27;109256;1286;22258;-88
2023/03/12 00:46:22;;;;;;;21.00;18.90;;;;;;;-2.60;100.00;97189.71;109370;1292;22087;-91
2023/03/12 00:48:50;;;;;;;18.80;16.90;;;;;;;-2.65;100.00;97191.41;109690;1292;22272;-90
2023/03/12 00:51:18;;;;;;;16.20;14.60;;;;;;;-2.66;100.00;97194.48;109669;1292;22267;-92
2023/03/12 00:53:47;;;;;;;16.90;15.30;;;;;;;-2.65;100.00;97196.14;109643;1292;22238;-88
2023/03/12 00:56:15;;;;;;;16.70;15.10;;;;;;;-2.65;100.00;97197.03;109382;1292;22214;-87
2023/03/12 00:58:43;;;;;;;18.20;16.40;;;;;;;-2.67;100.00;97198.32;109445;1292;22364;-89
2023/03/12 01:01:11;;;;;;;17.70;16.00;;;;;;;-2.69;100.00;97195.84;109487;1286;22164;-91
2023/03/12 01:03:39;;;;;;;16.20;14.70;;;;;;;-2.71;100.00;97199.48;109450;1292;22778;-88
2023/03/12 01:06:08;;;;;;;17.20;15.40;;;;;;;-2.71;100.00;97198.02;109368;1292;22142;-89
2023/03/12 01:08:36;;;;;;;17.80;16.10;;;;;;;-2.74;100.00;97198.60;109451;1292;23093;-90
2023/03/12 01:11:04;;;;;;;16.70;15.00;;;;;;;-2.77;100.00;97201.54;109355;1292;22324;-88
2023/03/12 01:13:32;;;;;;;17.10;15.40;;;;;;;-2.77;100.00;97197.22;109232;1292;22149;-90
2023/03/12 01:16:00;;;;;;;18.50;16.70;;;;;;;-2.75;100.00;97203.69;109451;1292;23026;-89
2023/03/12 01:18:28;;;;;;;19.40;17.40;;;;;;;-2.75;100.00;97201.53;109236;1292;22205;-90
2023/03/12 01:20:56;;;;;;;20.70;18.60;;;;;;;-2.74;100.00;97201.80;109367;1292;22231;-88
2023/03/12 01:23:24;;;;;;;19.30;17.40;;;;;;;-2.73;100.00;97199.30;109186;1292;22208;-86
2023/03/12 01:25:54;;;;;;;21.90;19.90;;;;;;;-2.71;100.00;97197.45;109368;1292;22592;-89
2023/03/12 01:28:22;;;;;;;30.80;27.50;;;;;;;-2.62;100.00;97197.73;109420;1270;22224;-86
2023/03/12 01:30:51;;;;;;;31.20;27.90;;;;;;;-2.55;100.00;97197.80;109394;1292;23070;-86
2023/03/12 01:33:21;;;;;;;25.60;23.30;;;;;;;-2.50;100.00;97199.41;109305;1292;22177;-86
2023/03/12 01:35:49;;;;;;;25.10;22.40;;;;;;;-2.48;100.00;97196.45;109524;1292;22350;-85
2023/03/12 01:38:19;;;;;;;24.90;22.50;;;;;;;-2.45;100.00;97192.39;109475;1292;22248;-88
2023/03/12 01:40:47;;;;;;;25.60;23.00;;;;;;;-2.41;100.00;97191.79;109652;1292;22139;-87
2023/03/12 01:43:31;;;;;;;23.60;21.30;;;;;;;-2.40;100.00;97198.26;109685;1292;22254;-85
2023/03/12 01:46:15;;;;;;;26.60;24.00;;;;;;;-2.41;100.00;97202.20;109512;1292;22356;-87
2023/03/12 01:48:47;;;;;;;25.80;23.20;;;;;;;-2.42;100.00;97207.29;109392;1292;22143;-88
2023/03/12 01:51:17;;;;;;;23.60;21.40;;;;;;;-2.40;100.00;97213.24;109264;1292;22223;-89
2023/03/12 01:53:48;;;;;;;25.30;23.00;;;;;;;-2.36;100.00;97216.13;109339;1292;22142;-86
2023/03/12 01:56:18;;;;;;;26.10;23.80;;;;;;;-2.36;100.00;97216.28;109391;1292;22148;-86
2023/03/12 01:58:57;;;;;;;23.60;21.40;;;;;;;-2.37;100.00;97219.91;109489;1292;22828;-87
2023/03/12 02:01:26;;;;;;;20.50;18.60;;;;;;;-2.38;100.00;97218.14;109547;1292;22245;-87
2023/03/12 02:03:58;;;;;;;24.30;22.10;;;;;;;-2.36;100.00;97221.07;109582;1292;22211;-88
2023/03/12 02:06:37;;;;;;;25.60;23.10;;;;;;;-2.32;100.00;97224.17;109477;1292;22207;-89
2023/03/12 02:09:06;;;;;;;24.30;21.80;;;;;;;-2.26;100.00;97226.24;109410;1292;22226;-87
2023/03/12 02:11:34;;;;;;;26.70;24.20;;;;;;;-2.25;100.00;97227.80;109472;1292;22907;-88
2023/03/12 02:14:02;;;;;;;23.80;21.60;;;;;;;-2.25;99.97;97231.81;109243;1288;22149;-89
2023/03/12 02:16:31;;;;;;;22.80;20.70;;;;;;;-2.23;99.41;97241.41;109211;1292;22231;-87
2023/03/12 02:19:01;;;;;;;19.70;18.00;;;;;;;-2.19;97.75;97241.05;109403;1292;22234;-86
2023/03/12 02:21:32;;;;;;;19.20;17.50;;;;;;;-2.19;96.47;97239.95;109342;1292;22277;-87
2023/03/12 02:24:14;;;;;;;22.40;20.30;;;;;;;-2.22;96.49;97236.16;109239;1292;22690;-90
2023/03/12 02:26:42;;;;;;;20.40;18.50;;;;;;;-2.22;96.25;97239.58;109410;1292;22212;-89
2023/03/12 02:29:11;;;;;;;23.90;21.40;;;;;;;-2.20;96.38;97247.65;109278;1292;22212;-83
2023/03/12 02:31:55;;;;;;;24.20;20.30;;;;;;;-2.16;96.53;97250.15;109145;1292;23087;-85
2023/03/12 02:34:23;;;;;;;23.70;21.30;;;;;;;-2.13;96.12;97254.70;109145;1292;22813;-84
2023/03/12 02:36:51;;;;;;;21.90;19.80;;;;;;;-2.13;95.73;97258.02;109144;1292;22886;-83
2023/03/12 02:39:19;;;;;;;19.80;17.90;;;;;;;-2.14;95.96;97259.04;109376;1292;22241;-84
2023/03/12 02:41:52;;;;;;;18.90;17.10;;;;;;;-2.11;95.18;97262.70;109134;1292;22212;-86
2023/03/12 02:44:24;;;;;;;19.10;17.30;;;;;;;-2.09;95.30;97267.08;109137;1292;22237;-87
2023/03/12 02:46:55;;;;;;;20.70;18.90;;;;;;;-2.06;94.91;97266.49;109002;1292;22776;-87
2023/03/12 02:49:28;;;;;;;20.20;18.30;;;;;;;-2.07;94.69;97268.08;109379;1292;22626;-86
2023/03/12 02:51:57;;;;;;;19.50;17.70;;;;;;;-2.08;94.10;97271.76;109384;1292;22173;-85
2023/03/12 02:54:25;;;;;;;19.30;17.70;;;;;;;-2.09;94.10;97272.31;109187;1292;22186;-84
2023/03/12 02:56:54;;;;;;;19.80;18.00;;;;;;;-2.05;93.97;97272.77;109085;1292;22171;-85
2023/03/12 02:59:26;;;;;;;21.50;19.60;;;;;;;-2.06;94.12;97281.14;109000;1292;22210;-86
2023/03/12 03:01:58;;;;;;;21.00;19.10;;;;;;;-2.07;93.71;97283.38;109298;1292;22216;-86
2023/03/12 03:04:28;;;;;;;19.50;17.60;;;;;;;-2.10;93.65;97287.56;109274;1292;22261;-87
2023/03/12 03:06:56;;;;;;;19.90;18.20;;;;;;;-2.08;93.94;97289.48;109370;1292;22202;-87
2023/03/12 03:09:25;;;;;;;21.60;19.70;;;;;;;-2.07;94.03;97299.00;109173;1280;22208;-84
2023/03/12 03:11:53;;;;;;;23.00;20.90;;;;;;;-2.05;93.68;97303.64;109300;1292;22130;-87
2023/03/12 03:14:22;;;;;;;25.10;22.50;;;;;;;-2.10;93.96;97302.75;109106;1292;22273;-84
2023/03/12 03:16:50;;;;;;;23.90;21.70;;;;;;;-2.08;94.09;97306.13;109298;1292;23069;-86
2023/03/12 03:19:20;;;;;;;23.80;21.60;;;;;;;-2.03;94.23;97310.59;109284;1292;22204;-85
2023/03/12 03:21:48;;;;;;;23.50;21.60;;;;;;;-2.02;94.29;97307.81;109388;1292;22203;-85
2023/03/12 03:24:16;;;;;;;28.10;25.60;;;;;;;-2.07;94.29;97308.14;109320;1292;22480;-85
2023/03/12 03:26:44;;;;;;;26.20;23.80;;;;;;;-2.08;94.06;97313.08;109276;1292;22194;-86
2023/03/12 03:29:13;;;;;;;25.80;23.60;;;;;;;-2.10;94.07;97318.55;109067;1292;22211;-84
2023/03/12 03:31:42;;;;;;;24.70;22.40;;;;;;;-2.09;94.56;97320.04;109467;1292;22232;-85
2023/03/12 03:34:11;;;;;;;27.10;24.80;;;;;;;-2.05;94.59;97320.16;109358;1292;22456;-87
2023/03/12 03:36:39;;;;;;;29.30;26.80;;;;;;;-2.09;94.63;97325.36;109199;1292;22228;-85
2023/03/12 03:39:10;;;;;;;27.90;25.40;;;;;;;-2.14;94.23;97329.06;109306;1292;22230;-85
2023/03/12 03:41:38;;;;;;;27.30;24.90;;;;;;;-2.18;94.30;97329.95;109168;1292;22731;-85
2023/03/12 03:44:07;;;;;;;26.60;24.50;;;;;;;-2.19;94.35;97331.59;109364;1292;22147;-86
2023/03/12 03:46:36;;;;;;;27.10;24.70;;;;;;;-2.20;94.40;97332.66;109279;1292;22861;-86
2023/03/12 03:49:06;;;;;;;29.60;27.10;;;;;;;-2.25;94.49;97332.35;109162;1292;22247;-87
2023/03/12 03:51:35;;;;;;;27.60;25.10;;;;;;;-2.30;94.29;97337.09;109269;1292;22287;-86
2023/03/12 03:54:08;;;;;;;28.20;25.50;;;;;;;-2.36;94.35;97341.41;109149;1292;22124;-86
2023/03/12 03:56:37;;;;;;;25.00;22.70;;;;;;;-2.37;94.33;97345.23;109294;1292;22881;-86
2023/03/12 03:59:06;;;;;;;26.00;23.80;;;;;;;-2.41;94.37;97340.29;109282;1292;22240;-86
2023/03/12 04:01:35;;;;;;;26.80;24.50;;;;;;;-2.44;94.39;97342.80;108995;1292;22238;-86
2023/03/12 04:04:04;;;;;;;28.20;25.70;;;;;;;-2.49;94.35;97344.78;109182;1292;22933;-86
2023/03/12 04:06:32;;;;;;;23.90;21.70;;;;;;;-2.56;94.30;97341.77;109348;1292;22147;-86
2023/03/12 04:09:01;;;;;;;24.10;21.80;;;;;;;-2.57;94.33;97345.07;109126;1292;22247;-85
2023/03/12 04:11:29;;;;;;;26.10;23.80;;;;;;;-2.60;94.31;97338.27;108997;1292;22174;-85
2023/03/12 04:13:57;;;;;;;27.90;25.30;;;;;;;-2.63;94.60;97342.90;109157;1292;22105;-86
2023/03/12 04:16:28;;;;;;;25.80;23.50;;;;;;;-2.69;94.21;97346.52;109305;1292;22143;-86
2023/03/12 04:18:57;;;;;;;24.60;22.40;;;;;;;-2.72;94.41;97348.89;109225;1292;22846;-87
2023/03/12 04:21:25;;;;;;;24.50;22.20;;;;;;;-2.74;94.54;97352.64;109312;1292;22232;-86
2023/03/12 04:23:53;;;;;;;28.00;25.50;;;;;;;-2.77;94.36;97350.61;109292;1292;22338;-87
2023/03/12 04:26:24;;;;;;;24.70;22.50;;;;;;;-2.82;94.23;97348.39;109174;1292;22133;-87
2023/03/12 04:28:52;;;;;;;25.40;23.00;;;;;;;-2.87;94.20;97352.06;109182;1292;22149;-87
2023/03/12 04:31:20;;;;;;;25.60;23.20;;;;;;;-2.90;94.32;97354.14;109186;1292;22197;-87
2023/03/12 04:33:50;;;;;;;24.80;22.60;;;;;;;-2.90;94.53;97355.98;109374;1292;22876;-85
2023/03/12 04:36:21;;;;;;;27.00;24.60;;;;;;;-2.92;94.45;97358.14;109203;1292;22260;-86
2023/03/12 04:38:50;;;;;;;27.80;25.30;;;;;;;-2.96;94.35;97357.22;108990;1292;22195;-86
2023/03/12 04:41:21;;;;;;;27.60;25.20;;;;;;;-3.00;94.22;97362.44;109378;1292;22290;-86
2023/03/12 04:43:52;;;;;;;25.30;23.00;;;;;;;-3.03;94.29;97362.56;109173;1292;22258;-87
2023/03/12 04:46:21;;;;;;;25.00;22.50;;;;;;;-3.01;94.55;97363.98;109176;1292;22935;-86
2023/03/12 04:48:49;;;;;;;26.80;24.50;;;;;;;-2.97;94.65;97363.40;109176;1292;22186;-85
2023/03/12 04:51:18;;;;;;;25.70;23.50;;;;;;;-2.94;94.57;97365.23;109290;1292;22922;-86
2023/03/12 04:53:46;;;;;;;27.80;25.20;;;;;;;-2.98;94.43;97363.17;109267;1292;22222;-87
2023/03/12 04:56:14;;;;;;;25.40;23.10;;;;;;;-3.01;94.85;97365.48;109184;1292;22292;-85
2023/03/12 04:58:44;;;;;;;26.30;23.80;;;;;;;-2.97;94.45;97369.54;109175;1292;22164;-85
2023/03/12 05:01:22;;;;;;;25.10;22.70;;;;;;;-2.93;94.48;97369.88;109371;1292;22228;-86
2023/03/12 05:03:51;;;;;;;25.90;23.70;;;;;;;-2.88;94.64;97373.69;108981;1292;22134;-87
2023/03/12 05:06:20;;;;;;;25.40;23.10;;;;;;;-2.87;94.59;97377.16;109177;1292;22208;-86
2023/03/12 05:08:49;;;;;;;26.70;24.30;;;;;;;-2.86;94.53;97380.65;109418;1292;22187;-87
2023/03/12 05:11:19;;;;;;;25.90;23.70;;;;;;;-2.85;94.42;97389.60;109195;1292;22123;-87
2023/03/12 05:13:47;;;;;;;24.90;22.50;;;;;;;-2.81;94.30;97387.34;109273;1292;22151;-87
2023/03/12 05:16:16;;;;;;;24.80;22.70;;;;;;;-2.75;94.45;97386.69;109400;1292;22914;-87
2023/03/12 05:18:44;;;;;;;21.50;19.60;;;;;;;-2.72;94.30;97389.66;109187;1279;22227;-87
2023/03/12 05:21:17;;;;;;;24.10;21.90;;;;;;;-2.71;94.10;97394.99;109001;1292;22293;-87
2023/03/12 05:23:47;;;;;;;23.60;21.40;;;;;;;-2.70;93.95;97393.02;109275;1292;22207;-87
2023/03/12 05:26:18;;;;;;;23.60;21.40;;;;;;;-2.66;93.89;97394.92;109184;1292;22206;-85
2023/03/12 05:28:47;;;;;;;21.40;19.40;;;;;;;-2.62;93.64;97395.50;109176;1292;22216;-88
2023/03/12 05:31:17;;;;;;;22.80;20.60;;;;;;;-2.58;93.81;97396.30;109183;1292;22197;-86
2023/03/12 05:33:45;;;;;;;24.90;22.70;;;;;;;-2.55;93.93;97401.48;109278;1292;22911;-86
2023/03/12 05:36:15;;;;;;;24.50;22.40;;;;;;;-2.53;94.02;97406.80;109169;1292;22173;-88
2023/03/12 05:38:45;;;;;;;22.60;20.60;;;;;;;-2.52;93.53;97412.21;109132;1292;23158;-86
2023/03/12 05:41:25;;;;;;;24.40;22.00;;;;;;;-2.47;93.22;97412.80;109141;1292;22879;-88
2023/03/12 05:43:57;;;;;;;24.70;22.40;;;;;;;-2.43;93.25;97411.48;109247;1292;22226;-88
2023/03/12 05:46:27;;;;;;;27.00;24.60;;;;;;;-2.40;93.17;97415.30;109170;1292;22250;-89
2023/03/12 05:48:55;;;;;;;24.60;22.50;;;;;;;-2.39;92.82;97420.80;109166;1292;22371;-88
2023/03/12 05:51:23;;;;;;;22.10;19.90;;;;;;;-2.39;92.10;97420.11;109250;1292;22118;-88
2023/03/12 05:53:51;;;;;;;21.20;19.40;;;;;;;-2.38;92.11;97420.73;109136;1292;22218;-87
2023/03/12 05:56:20;;;;;;;22.20;19.90;;;;;;;-2.35;92.13;97424.86;109262;1292;22217;-86
2023/03/12 05:58:48;;;;;;;23.00;20.70;;;;;;;-2.38;92.14;97426.00;109260;1292;22134;-88
2023/03/12 06:01:21;;;;;;;22.90;20.80;;;;;;;-2.37;91.75;97423.97;109199;1292;22290;-89
2023/03/12 06:03:49;;;;;;;23.80;21.60;;;;;;;-2.36;91.55;97426.11;109244;1292;22130;-87
2023/03/12 06:06:17;;;;;;;24.30;22.20;;;;;;;-2.34;91.95;97428.05;108935;1292;22235;-87
2023/03/12 06:08:45;;;;;;;25.60;23.30;;;;;;;-2.26;91.81;97428.79;109368;1292;22183;-88
2023/03/12 06:11:13;;;;;;;28.40;25.90;;;;;;;-2.28;91.77;97436.45;109179;1292;22196;-88
2023/03/12 06:13:42;;;;;;;23.10;20.90;;;;;;;-2.28;91.46;97442.27;109253;1292;22905;-88
2023/03/12 06:16:16;;;;;;;22.90;20.90;;;;;;;-2.26;91.18;97441.70;109371;1292;22358;-88
2023/03/12 06:18:45;;;;;;;;;;;;;;;-2.25;91.36;97442.77;109399;1292;22388;-87
2023/03/12 06:21:20;;;;;;;25.70;23.30;;;;;;;-2.25;91.23;97446.14;109147;1292;22200;-85
2023/03/12 06:23:49;;;;;;;27.50;24.80;;;;;;;-2.26;90.83;97451.92;109372;1292;22156;-87
2023/03/12 06:26:22;;;;;;;22.20;20.10;;;;;;;-2.25;90.72;97453.05;109272;1292;22173;-87
2023/03/12 06:28:51;;;;;;;22.70;20.50;;;;;;;-2.20;90.65;97449.54;109352;1277;22283;-88
2023/03/12 06:31:20;;;;;;;24.40;22.30;;;;;;;-2.17;90.90;97450.56;109369;1292;22195;-88
2023/03/12 06:33:49;;;;;;;24.30;21.90;;;;;;;-2.13;90.47;97454.52;109377;1292;22281;-87
2023/03/12 06:36:21;;;;;;;22.10;20.20;;;;;;;-2.11;90.12;97459.85;109105;1292;22194;-85
2023/03/12 06:38:49;;;;;;;22.50;20.40;;;;;;;-2.10;90.01;97462.35;109435;1292;22206;-84
2023/03/12 06:41:19;;;;;;;19.90;18.00;;;;;;;-2.05;90.41;97468.53;109390;1292;22141;-85
2023/03/12 06:43:47;;;;;;;20.20;18.30;;;;;;;-2.00;90.49;97474.52;109371;1292;22395;-83
2023/03/12 06:46:17;;;;;;;19.20;17.30;;;;;;;-1.96;90.02;97475.98;109372;1292;22204;-85
2023/03/12 06:48:46;;;;;;;21.90;20.00;;;;;;;-1.96;89.56;97481.74;109437;1292;22286;-85
2023/03/12 06:51:15;;;;;;;19.70;17.80;;;;;;;-1.93;89.63;97480.02;109458;1270;22239;-85
2023/03/12 06:53:44;;;;;;;19.90;18.20;;;;;;;-1.87;89.54;97478.99;109143;1292;22214;-86
2023/03/12 06:56:15;;;;;;;20.60;18.60;;;;;;;-1.82;89.06;97481.21;109383;1292;22221;-88
2023/03/12 06:58:43;;;;;;;22.70;20.80;;;;;;;-1.78;88.74;97483.04;109201;1292;22172;-88
2023/03/12 07:01:12;;;;;;;19.20;17.50;;;;;;;-1.77;89.25;97485.13;109380;1292;22295;-89
2023/03/12 07:03:40;;;;;;;19.00;17.30;;;;;;;-1.71;89.12;97486.37;109355;1292;22626;-86
2023/03/12 07:06:13;;;;;;;19.90;18.20;;;;;;;-1.65;88.63;97487.10;109249;1292;22229;-87
2023/03/12 07:08:42;;;;;;;20.30;18.50;;;;;;;-1.61;88.60;97489.52;109380;1292;23025;-88
2023/03/12 07:11:12;;;;;;;20.20;18.30;;;;;;;-1.56;88.47;97485.13;109245;1292;22221;-86
2023/03/12 07:13:40;;;;;;;21.50;19.60;;;;;;;-1.51;87.66;97485.23;109388;1292;22227;-87
2023/03/12 07:16:09;;;;;;;23.10;21.00;;;;;;;-1.46;87.99;97491.95;109359;1292;22195;-88
2023/03/12 07:18:37;;;;;;;20.50;18.50;;;;;;;-1.30;88.14;97489.95;109392;1292;22210;-92
2023/03/12 07:21:06;;;;;;;22.10;19.90;;;;;;;-1.24;87.23;97492.26;109529;1292;22216;-87
2023/03/12 07:23:42;;;;;;;20.50;18.70;;;;;;;-1.25;86.87;97490.54;109593;1270;22132;31
2023/03/12 07:26:10;;;;;;;21.90;19.90;;;;;;;-1.25;85.75;97488.48;109528;1292;22228;-89
2023/03/12 07:28:39;;;;;;;21.90;19.60;;;;;;;-1.27;85.74;97491.51;109675;1292;21945;-86
2023/03/12 07:31:07;;;;;;;22.40;20.30;;;;;;;-1.23;86.08;97492.21;109652;1273;22198;-92
2023/03/12 07:33:35;;;;;;;23.50;21.30;;;;;;;-1.18;86.34;97491.86;109674;1268;22307;-89
2023/03/12 07:36:09;;;;;;;24.50;22.30;;;;;;;-1.09;86.56;97490.44;109665;1273;22397;31
2023/03/12 07:41:30;;;;;;;22.80;20.70;;;;;;;-0.93;85.74;97493.20;109710;1273;22418;-88
2023/03/12 07:44:04;;;;;;;25.00;22.80;;;;;;;-0.89;84.70;97504.59;109645;1273;23307;31
2023/03/12 07:46:33;;;;;;;22.20;20.10;;;;;;;-0.83;85.63;97503.13;109797;1278;22070;-84
2023/03/12 07:49:19;;;;;;;21.70;19.60;;;;;;;-0.73;85.41;97503.65;109692;1265;23662;31
2023/03/12 07:51:47;;;;;;;19.00;17.30;;;;;;;-0.65;85.29;97495.48;109446;1277;21921;-84
2023/03/12 07:54:15;;;;;;;26.00;23.50;;;;;;;-0.58;84.92;97497.52;109673;1271;22122;-93
2023/03/12 07:56:51;;;;;;;29.30;26.50;;;;;;;-0.56;84.62;97497.39;109523;1270;24339;31
2023/03/12 07:59:26;;;;;;;32.60;29.30;;;;;;;-0.52;84.15;97495.67;105664;1270;22269;-93
2023/03/12 08:02:20;;;;;;;26.90;24.40;;;;;;;-0.51;84.08;97497.97;109614;1270;22391;31
2023/03/12 08:04:49;;;;;;;24.70;22.30;;;;;;;-0.46;84.28;97492.29;109593;1292;22219;-91
2023/03/12 08:07:17;;;;;;;24.70;22.50;;;;;;;-0.44;84.43;97489.03;109790;1292;22174;-88
2023/03/12 08:09:48;;;;;;;27.00;24.40;;;;;;;-0.38;84.17;97494.65;109655;1292;22236;-90
2023/03/12 08:12:19;;;;;;;25.30;22.90;;;;;;;-0.28;83.95;97496.66;109647;1292;22216;-91
2023/03/12 08:14:47;;;;;;;27.30;24.70;;;;;;;-0.26;83.23;97494.64;109513;1288;22227;-89
2023/03/12 08:17:16;;;;;;;22.30;20.20;;;;;;;-0.30;82.83;97497.38;109493;1292;23355;-87
2023/03/12 08:19:44;;;;;;;24.20;22.00;;;;;;;-0.28;81.99;97497.63;109246;1292;22145;-87
2023/03/12 08:22:12;;;;;;;20.10;18.20;;;;;;;-0.24;81.64;97497.79;109490;1292;22217;-91
2023/03/12 08:24:43;;;;;;;19.70;17.80;;;;;;;-0.17;81.89;97495.30;109503;1292;22222;-89
2023/03/12 08:27:11;;;;;;;21.50;19.40;;;;;;;-0.11;81.96;97498.84;109512;1292;22918;-90
2023/03/12 08:29:40;;;;;;;23.50;21.40;;;;;;;-0.03;81.20;97508.58;109656;1292;22296;-89
2023/03/12 08:32:09;;;;;;;23.30;21.10;;;;;;;0.00;81.45;97503.66;109653;1272;22247;-90
2023/03/12 08:34:37;;;;;;;21.40;19.50;;;;;;;0.08;81.66;97506.31;109458;1292;23001;-87
2023/03/12 08:37:06;;;;;;;17.60;15.80;;;;;;;0.18;80.78;97515.45;109666;1273;22123;-89
2023/03/12 08:39:34;;;;;;;15.80;14.30;;;;;;;0.22;79.61;97521.27;109653;1289;22229;-90
2023/03/12 08:42:04;;;;;;;16.40;14.80;;;;;;;0.29;79.17;97521.48;109352;1292;22232;-82
2023/03/12 08:44:32;;;;;;;15.00;13.40;;;;;;;0.33;78.13;97536.81;109442;1292;22143;-86
2023/03/12 08:47:01;;;;;;;12.80;11.50;;;;;;;0.40;77.50;97533.70;109398;1292;22206;-88
2023/03/12 08:49:29;;;;;;;15.50;11.80;;;;;;;0.51;78.08;97522.83;109348;1292;22205;-88
2023/03/12 08:51:57;;;;;;;14.10;12.60;;;;;;;0.64;77.66;97528.73;109657;1292;22246;-86
2023/03/12 08:54:31;;;;;;;13.80;12.30;;;;;;;0.72;76.66;97530.50;109725;1273;22597;31
2023/03/12 08:57:07;;;;;;;13.10;11.60;;;;;;;0.76;75.64;97536.48;103373;1277;22527;-83
2023/03/12 08:59:41;;;;;;;13.60;12.20;;;;;;;0.80;76.20;97535.48;109711;1274;22518;31
2023/03/12 09:02:14;;;;;;;15.70;14.10;;;;;;;0.87;75.97;97533.57;109744;1270;22382;-89
2023/03/12 09:04:49;;;;;;;16.00;14.40;;;;;;;0.99;76.78;97532.39;104982;1272;22298;-84
2023/03/12 09:07:22;;;;;;;16.40;14.70;;;;;;;1.16;75.89;97528.67;109761;1269;22079;31
2023/03/12 09:09:56;;;;;;;18.00;16.30;;;;;;;1.17;74.17;97535.70;109553;1273;22931;31
2023/03/12 09:12:43;;;;;;;15.10;13.60;;;;;;;1.13;73.49;97540.27;109572;1273;21945;31
2023/03/12 09:15:12;;;;;;;15.80;13.20;;;;;;;1.09;72.82;97536.14;109617;1273;23523;-89
2023/03/12 09:17:40;;;;;;;14.80;13.00;;;;;;;1.10;72.85;97541.08;109650;1270;22158;-94
2023/03/12 09:20:14;;;;;;;14.30;12.80;;;;;;;1.09;73.20;97543.46;109576;1270;22265;31
2023/03/12 09:22:48;;;;;;;14.40;12.60;;;;;;;1.21;73.83;97535.00;109569;1271;22368;31
2023/03/12 09:25:36;;;;;;;14.70;13.30;;;;;;;1.26;71.51;97533.95;109618;1270;24514;31
2023/03/12 09:28:12;;;;;;;14.00;12.60;;;;;;;1.30;71.72;97546.15;106695;1273;23773;31
2023/03/12 09:37:51;;;;;;;15.30;13.70;;;;;;;1.77;71.61;97538.33;87756;1276;23234;31
2023/03/12 09:40:30;;;;;;;14.00;12.60;;;;;;;1.94;70.89;97545.14;109603;1272;22441;31
2023/03/12 09:43:09;;;;;;;15.00;12.80;;;;;;;2.01;70.14;97543.93;109575;1270;23517;31
2023/03/12 09:45:42;;;;;;;15.40;13.90;;;;;;;2.12;69.43;97548.06;109688;1270;22219;-93
2023/03/12 09:48:32;;;;;;;14.80;13.30;;;;;;;2.25;70.35;97539.51;109690;1270;23261;-86
2023/03/12 09:51:37;;;;;;;15.30;13.60;;;;;;;2.40;69.44;97541.70;109346;1270;22202;-88
2023/03/12 09:54:12;;;;;;;16.30;12.80;;;;;;;2.57;70.69;97541.23;109733;1291;22273;-90
2023/03/12 09:56:40;;;;;;;14.80;13.20;;;;;;;2.65;68.11;97538.26;109654;1291;22193;-88
2023/03/12 09:59:13;;;;;;;14.10;12.70;;;;;;;2.55;67.81;97534.94;109717;1268;22414;31
2023/03/12 10:04:48;;;;;;;15.50;13.80;;;;;;;2.75;67.38;97528.54;109662;1271;22863;-86
2023/03/12 10:07:44;;;;;;;15.10;13.40;;;;;;;2.67;68.02;97524.13;109668;1273;22219;-92
2023/03/12 10:10:29;;;;;;;15.30;13.70;;;;;;;2.80;67.42;97529.58;109615;1291;22926;-91
2023/03/12 10:13:35;;;;;;;15.50;14.00;;;;;;;2.80;66.59;97527.66;109489;1291;22263;-89
2023/03/12 10:16:21;;;;;;;16.30;14.00;;;;;;;2.81;66.48;97536.88;109460;1291;22228;-89
2023/03/12 10:19:08;;;;;;;17.10;14.00;;;;;;;2.83;66.08;97532.73;109552;1291;22405;-89
2023/03/12 10:21:47;;;;;;;18.10;14.60;;;;;;;2.81;65.84;97528.25;109624;1291;22966;-93
2023/03/12 10:24:24;;;;;;;17.00;13.50;;;;;;;2.84;66.14;97522.36;109567;1271;168919;-83
2023/03/12 10:26:56;;;;;;;15.50;13.00;;;;;;;2.93;65.62;97527.20;109705;1291;22194;-89
2023/03/12 10:29:35;;;;;;;16.20;14.10;;;;;;;2.97;65.80;97525.30;109683;1270;22429;-92
2023/03/12 10:35:14;;;;;;;14.60;13.00;;;;;;;3.20;65.63;97522.43;109283;1292;22231;-88
2023/03/12 10:37:46;;;;;;;14.10;12.60;;;;;;;3.15;64.70;97520.44;109266;1294;22493;-93
2023/03/12 10:40:18;;;;;;;15.00;13.50;;;;;;;3.13;64.89;97514.31;109413;1294;22218;-89
2023/03/12 10:42:47;;;;;;;14.20;12.70;;;;;;;3.11;64.96;97517.38;109599;1294;22760;-89
2023/03/12 10:48:48;;;;;;;15.20;13.60;;;;;;;2.95;65.38;97519.16;109584;1270;22439;-86
2023/03/12 10:51:25;;;;;;;16.50;15.00;;;;;;;3.04;65.48;97525.87;109429;1270;22178;31
2023/03/12 10:53:53;;;;;;;24.10;21.80;;;;;;;3.11;64.61;97522.71;109709;1292;22236;-91
2023/03/12 10:56:21;;;;;;;15.60;14.00;;;;;;;3.06;64.65;97531.04;109602;1292;22197;-91
2023/03/12 10:58:51;;;;;;;14.80;12.80;;;;;;;3.06;64.54;97524.23;109626;1273;22574;-89
2023/03/12 11:01:24;;;;;;;16.40;14.70;;;;;;;3.08;64.07;97526.37;109599;1273;22614;-87
2023/03/12 11:04:08;;;;;;;17.30;14.70;;;;;;;3.16;64.30;97524.01;109424;1270;22335;-89
2023/03/12 11:06:36;;;;;;;16.60;13.60;;;;;;;3.28;64.07;97530.50;109458;1293;22257;-90
2023/03/12 11:09:19;;;;;;;15.00;13.50;;;;;;;3.29;62.98;97533.75;109441;1293;22147;-85
2023/03/12 11:11:49;;;;;;;18.30;14.60;;;;;;;3.13;63.16;97529.64;109618;1293;22210;-90
2023/03/12 11:14:24;;;;;;;15.80;14.00;;;;;;;3.04;63.64;97527.36;109557;1293;22187;-89
2023/03/12 11:16:54;;;;;;;15.00;13.10;;;;;;;3.05;63.18;97530.13;109504;1293;22258;-91
2023/03/12 11:19:33;;;;;;;15.60;12.80;;;;;;;3.06;63.87;97524.92;109468;1293;22222;-86
2023/03/12 11:22:46;;;;;;;14.60;13.00;;;;;;;3.16;64.03;97525.66;109729;1270;22755;-85
2023/03/12 11:25:22;;;;;;;15.60;14.00;;;;;;;3.43;63.20;97523.89;109546;1271;22483;-92
2023/03/12 11:27:58;;;;;;;16.50;12.90;;;;;;;3.53;62.03;97523.93;109722;1291;22171;-90
2023/03/12 11:30:38;;;;;;;17.10;15.30;;;;;;;3.51;61.98;97515.15;109601;1272;22178;-87
2023/03/12 11:33:09;;;;;;;41.60;36.50;;;;;;;3.62;62.04;97515.76;109711;1271;22295;-88
2023/03/12 11:36:14;;;;;;;16.30;14.50;;;;;;;3.64;62.37;97514.37;109496;1291;22231;-89
2023/03/12 11:38:48;;;;;;;15.50;13.40;;;;;;;3.85;62.85;97521.88;109647;1291;22216;-92
2023/03/12 11:41:40;;;;;;;17.10;15.10;;;;;;;3.87;63.12;97525.55;109650;1272;22163;-90
2023/03/12 11:44:32;;;;;;;15.40;13.90;;;;;;;3.78;62.35;97519.41;109763;1270;22007;31
2023/03/12 11:47:06;;;;;;;15.90;13.40;;;;;;;3.65;62.34;97520.13;109591;1273;22680;-90
2023/03/12 11:50:07;;;;;;;14.30;12.80;;;;;;;3.70;62.24;97525.46;109810;1291;22220;-89
2023/03/12 11:52:47;;;;;;;14.70;12.60;;;;;;;3.85;60.61;97527.91;109700;1274;22968;-90